createdAt,value
2023-02-16T00:01:53.715Z,0.54
2023-02-16T00:12:25.714Z,0.60
2023-02-16T00:22:38.717Z,0.73
2023-02-16T00:32:51.683Z,0.86
2023-02-16T00:43:05.738Z,0.91
2023-02-16T00:53:19.733Z,1.02
2023-02-16T01:03:34.737Z,1.09
2023-02-16T01:13:53.769Z,0.97
2023-02-16T01:24:06.746Z,1.12
2023-02-16T01:34:19.734Z,1.01
2023-02-16T01:44:36.760Z,1.06
2023-02-16T01:54:57.794Z,0.95
2023-02-16T02:05:33.796Z,1.10
2023-02-16T02:15:46.819Z,1.18
2023-02-16T02:26:30.810Z,1.32
2023-02-16T02:36:44.789Z,1.37
2023-02-16T02:46:57.907Z,1.36
2023-02-16T02:57:39.834Z,1.34
2023-02-16T03:07:54.825Z,1.42
2023-02-16T03:18:29.817Z,1.39
2023-02-16T03:29:02.815Z,1.39
2023-02-16T03:39:15.805Z,1.40
2023-02-16T03:49:28.848Z,1.41
2023-02-16T03:59:41.837Z,1.46
2023-02-16T04:10:00.865Z,1.49
2023-02-16T04:20:15.842Z,1.49
2023-02-16T04:30:33.949Z,1.50
2023-02-16T04:40:46.873Z,1.49
2023-02-16T04:51:06.878Z,1.41
2023-02-16T05:01:29.908Z,1.46
2023-02-16T05:12:06.892Z,1.37
2023-02-16T05:22:19.890Z,1.43
2023-02-16T05:32:32.888Z,1.39
2023-02-16T05:42:45.891Z,1.43
2023-02-16T05:52:58.927Z,1.42
2023-02-16T06:03:11.925Z,1.61
2023-02-16T06:13:24.942Z,1.60
2023-02-16T06:23:37.947Z,1.72
2023-02-16T06:33:50.935Z,1.75
2023-02-16T06:44:03.943Z,1.92
2023-02-16T06:54:16.949Z,2.07
2023-02-16T07:04:29.974Z,2.43
2023-02-16T07:14:44.146Z,2.84
2023-02-16T07:24:57.005Z,3.26
2023-02-16T07:35:09.940Z,3.72
2023-02-16T07:45:22.998Z,4.56
2023-02-16T07:55:35.966Z,5.06
2023-02-16T08:05:48.997Z,5.35
2023-02-16T08:16:02.179Z,6.82
2023-02-16T08:26:19.047Z,6.73
2023-02-16T08:36:40.094Z,8.38
2023-02-16T08:46:55.076Z,8.23
2023-02-16T08:57:10.002Z,8.91
2023-02-16T09:07:23.021Z,8.65
2023-02-16T09:17:37.033Z,9.85
2023-02-16T09:27:51.086Z,9.97
2023-02-16T09:38:05.035Z,9.86
2023-02-16T09:48:42.063Z,9.96
2023-02-16T09:59:01.030Z,10.20
2023-02-16T10:09:29.074Z,11.00
2023-02-16T10:19:46.079Z,10.77
2023-02-16T10:30:05.114Z,10.50
2023-02-16T10:40:35.097Z,10.79
2023-02-16T10:51:20.102Z,10.89
2023-02-16T11:01:45.104Z,11.68
2023-02-16T11:12:05.129Z,11.55
2023-02-16T11:22:37.108Z,11.84
2023-02-16T11:32:50.138Z,11.17
2023-02-16T11:43:05.099Z,11.11
2023-02-16T11:53:18.137Z,11.61
2023-02-16T12:04:02.170Z,12.21
2023-02-16T12:14:20.156Z,11.35
2023-02-16T12:24:40.177Z,11.45
2023-02-16T12:35:05.162Z,11.66
2023-02-16T12:45:24.159Z,11.58
2023-02-16T12:55:46.201Z,10.89
2023-02-16T13:06:19.177Z,10.46
2023-02-16T13:16:52.237Z,9.61
2023-02-16T13:27:33.221Z,9.90
2023-02-16T13:38:11.209Z,9.59
2023-02-16T13:48:48.205Z,9.55
2023-02-16T13:59:01.224Z,9.19
2023-02-16T14:09:20.213Z,8.63
2023-02-16T14:19:34.203Z,8.57
2023-02-16T14:29:47.274Z,8.56
2023-02-16T14:40:07.766Z,8.42
2023-02-16T14:50:53.279Z,8.33
2023-02-16T15:01:19.282Z,7.92
2023-02-16T15:12:10.248Z,7.59
2023-02-16T15:22:31.308Z,7.37
2023-02-16T15:32:45.269Z,6.99
2023-02-16T15:42:58.317Z,6.81
2023-02-16T15:53:11.292Z,6.54
2023-02-16T16:03:25.325Z,6.20
2023-02-16T16:13:45.274Z,5.77
2023-02-16T16:24:05.366Z,5.57
2023-02-16T16:34:39.309Z,5.16
2023-02-16T16:45:01.389Z,4.66
2023-02-16T16:55:29.298Z,4.59
2023-02-16T17:05:45.496Z,4.49
2023-02-16T17:16:20.354Z,4.24
2023-02-16T17:26:33.527Z,4.11
2023-02-16T17:36:46.364Z,4.07
2023-02-16T17:47:00.623Z,3.95
2023-02-16T17:57:13.346Z,3.85
2023-02-16T18:07:33.641Z,3.65
2023-02-16T18:17:46.356Z,3.56
2023-02-16T18:27:59.685Z,3.38
2023-02-16T18:38:12.400Z,3.19
2023-02-16T18:48:25.686Z,3.20
2023-02-16T18:58:39.398Z,3.27
2023-02-16T19:08:59.680Z,3.15
2023-02-16T19:19:12.414Z,2.91
2023-02-16T19:29:25.691Z,2.95
2023-02-16T19:39:38.447Z,2.97
2023-02-16T19:49:51.643Z,2.79
2023-02-16T20:00:04.430Z,2.83
2023-02-16T20:10:17.676Z,2.65
2023-02-16T20:20:30.474Z,2.57
2023-02-16T20:30:43.684Z,2.43
2023-02-16T20:40:56.528Z,2.30
2023-02-16T20:51:12.664Z,2.25
2023-02-16T21:01:30.498Z,2.34
2023-02-16T21:11:50.525Z,2.43
2023-02-16T21:22:03.467Z,2.37
2023-02-16T21:32:16.535Z,2.37
2023-02-16T21:42:29.499Z,2.33
2023-02-16T21:52:42.552Z,2.32
2023-02-16T22:02:55.547Z,2.20
2023-02-16T22:13:14.524Z,2.12
2023-02-16T22:23:27.568Z,1.97
2023-02-16T22:33:40.558Z,2.02
2023-02-16T22:43:52.536Z,2.25
2023-02-16T22:54:06.565Z,2.46
2023-02-16T23:04:21.606Z,2.60
2023-02-16T23:14:41.612Z,2.64
2023-02-16T23:25:14.569Z,2.66
2023-02-16T23:35:27.592Z,2.55
2023-02-16T23:45:40.559Z,2.50
2023-02-16T23:55:53.609Z,2.34
